createdAt,value
2023-05-22T00:02:11.214Z,4.20
2023-05-22T00:04:40.275Z,4.20
2023-05-22T00:07:10.072Z,3.60
2023-05-22T00:09:38.345Z,3.72
2023-05-22T00:12:07.154Z,4.85
2023-05-22T00:14:35.446Z,3.42
2023-05-22T00:17:03.695Z,4.20
2023-05-22T00:19:33.386Z,3.73
2023-05-22T00:22:01.702Z,4.35
2023-05-22T00:24:32.030Z,4.30
2023-05-22T00:27:00.288Z,3.63
2023-05-22T00:29:28.528Z,3.80
2023-05-22T00:31:56.754Z,3.90
2023-05-22T00:34:25.032Z,4.30
2023-05-22T00:36:53.357Z,3.87
2023-05-22T00:39:21.927Z,4.32
2023-05-22T00:41:51.614Z,4.55
2023-05-22T00:44:19.800Z,4.37
2023-05-22T00:46:48.048Z,3.80
2023-05-22T00:49:16.257Z,4.13
2023-05-22T00:51:44.562Z,4.03
2023-05-22T00:54:14.089Z,4.13
2023-05-22T00:56:43.202Z,4.73
2023-05-22T00:59:12.912Z,4.05
2023-05-22T01:01:43.094Z,4.27
2023-05-22T01:04:12.937Z,3.97
2023-05-22T01:06:41.557Z,3.83
2023-05-22T01:09:09.904Z,3.83
2023-05-22T01:11:46.308Z,4.50
2023-05-22T01:14:23.965Z,4.10
2023-05-22T01:17:00.237Z,4.60
2023-05-22T01:20:01.624Z,4.00
2023-05-22T01:23:03.593Z,4.20
2023-05-22T01:26:03.886Z,4.67
2023-05-22T01:28:57.186Z,4.83
2023-05-22T01:31:28.939Z,4.70
2023-05-22T01:33:58.765Z,5.13
2023-05-22T01:36:32.042Z,4.27
2023-05-22T01:39:01.789Z,4.43
2023-05-22T01:41:30.751Z,4.80
2023-05-22T01:43:59.293Z,5.03
2023-05-22T01:46:29.439Z,4.47
2023-05-22T01:48:57.843Z,4.67
2023-05-22T01:51:34.998Z,4.70
2023-05-22T01:54:09.518Z,4.37
2023-05-22T01:56:49.099Z,4.00
2023-05-22T01:59:23.674Z,4.40
2023-05-22T02:01:55.473Z,5.07
2023-05-22T02:04:24.770Z,4.22
2023-05-22T02:06:55.310Z,4.33
2023-05-22T02:09:27.358Z,4.97
2023-05-22T02:11:55.753Z,4.55
2023-05-22T02:14:24.110Z,4.80
2023-05-22T02:16:53.921Z,4.65
2023-05-22T02:19:22.310Z,4.05
2023-05-22T02:21:50.710Z,5.03
2023-05-22T02:24:19.023Z,4.95
2023-05-22T02:26:47.938Z,4.65
2023-05-22T02:29:16.345Z,4.78
2023-05-22T02:31:44.617Z,4.50
2023-05-22T02:34:14.581Z,4.53
2023-05-22T02:36:43.244Z,4.05
2023-05-22T02:39:11.543Z,4.90
2023-05-22T02:41:39.773Z,5.32
2023-05-22T02:44:07.899Z,3.97
2023-05-22T02:46:36.334Z,4.80
2023-05-22T02:49:04.779Z,4.70
2023-05-22T02:51:34.490Z,4.72
2023-05-22T02:54:02.711Z,4.45
2023-05-22T02:56:31.327Z,4.00
2023-05-22T02:58:59.495Z,4.30
2023-05-22T03:01:30.659Z,4.67
2023-05-22T03:03:59.073Z,4.65
2023-05-22T03:06:27.300Z,3.88
2023-05-22T03:08:56.952Z,4.67
2023-05-22T03:11:25.238Z,4.43
2023-05-22T03:13:53.482Z,4.97
2023-05-22T03:16:21.761Z,4.93
2023-05-22T03:18:51.814Z,4.83
2023-05-22T03:21:20.065Z,4.90
2023-05-22T03:23:49.459Z,4.37
2023-05-22T03:26:19.096Z,4.60
2023-05-22T03:28:47.613Z,4.83
2023-05-22T03:31:15.875Z,4.80
2023-05-22T03:33:44.177Z,4.60
2023-05-22T03:36:12.528Z,4.97
2023-05-22T03:38:41.664Z,5.13
2023-05-22T03:41:10.052Z,4.47
2023-05-22T03:43:40.349Z,5.38
2023-05-22T03:46:10.856Z,5.23
2023-05-22T03:48:40.584Z,5.07
2023-05-22T03:51:08.827Z,5.67
2023-05-22T03:53:36.993Z,4.93
2023-05-22T03:56:05.345Z,5.13
2023-05-22T03:58:33.586Z,4.97
2023-05-22T04:01:03.864Z,4.93
2023-05-22T04:03:32.304Z,5.22
2023-05-22T04:06:00.564Z,5.53
2023-05-22T04:08:28.689Z,4.97
2023-05-22T04:10:56.820Z,4.85
2023-05-22T04:13:25.077Z,4.83
2023-05-22T04:15:53.743Z,5.07
2023-05-22T04:18:23.451Z,4.93
2023-05-22T04:20:52.096Z,5.23
2023-05-22T04:23:20.350Z,5.15
2023-05-22T04:25:49.141Z,5.13
2023-05-22T04:28:22.483Z,4.60
2023-05-22T04:30:51.033Z,5.65
2023-05-22T04:33:19.376Z,5.25
2023-05-22T04:35:48.978Z,5.25
2023-05-22T04:38:18.524Z,6.63
2023-05-22T04:40:46.747Z,6.15
2023-05-22T04:43:14.954Z,6.25
2023-05-22T04:45:43.634Z,5.90
2023-05-22T04:48:12.763Z,5.47
2023-05-22T04:50:41.334Z,5.70
2023-05-22T04:53:12.817Z,5.20
2023-05-22T04:55:41.027Z,5.65
2023-05-22T04:58:09.357Z,5.55
2023-05-22T05:00:37.935Z,5.40
2023-05-22T05:03:08.293Z,5.47
2023-05-22T05:05:36.811Z,6.55
2023-05-22T05:08:05.049Z,5.57
2023-05-22T05:10:34.712Z,6.00
2023-05-22T05:13:02.919Z,5.63
2023-05-22T05:15:31.116Z,5.95
2023-05-22T05:17:59.418Z,5.53
2023-05-22T05:20:27.744Z,5.82
2023-05-22T05:22:56.154Z,5.60
2023-05-22T05:25:24.348Z,6.28
2023-05-22T05:27:53.989Z,5.43
2023-05-22T05:30:22.187Z,5.75
2023-05-22T05:32:50.455Z,5.85
2023-05-22T05:35:18.633Z,6.70
2023-05-22T05:37:46.772Z,5.70
2023-05-22T05:40:16.395Z,5.65
2023-05-22T05:42:44.571Z,4.97
2023-05-22T05:45:15.613Z,5.45
2023-05-22T05:47:43.798Z,5.20
2023-05-22T05:50:15.721Z,5.93
2023-05-22T05:52:44.054Z,5.95
2023-05-22T05:55:12.209Z,5.00
2023-05-22T05:57:40.900Z,5.78
2023-05-22T06:00:11.553Z,5.30
2023-05-22T06:02:42.033Z,5.25
2023-05-22T06:05:11.233Z,5.32
2023-05-22T06:07:39.983Z,5.07
2023-05-22T06:10:09.677Z,5.22
2023-05-22T06:12:37.968Z,4.75
2023-05-22T06:15:07.509Z,5.28
2023-05-22T06:17:37.363Z,5.50
2023-05-22T06:20:09.347Z,4.50
2023-05-22T06:22:37.781Z,5.10
2023-05-22T06:25:06.881Z,4.72
2023-05-22T06:27:35.603Z,4.75
2023-05-22T06:30:04.878Z,5.53
2023-05-22T06:32:33.473Z,4.75
2023-05-22T06:35:01.879Z,5.47
2023-05-22T06:37:35.661Z,4.63
2023-05-22T06:40:04.097Z,5.25
2023-05-22T06:42:32.306Z,4.75
2023-05-22T06:45:00.538Z,4.68
2023-05-22T06:47:28.912Z,4.82
2023-05-22T06:49:57.142Z,5.05
2023-05-22T06:52:25.274Z,4.45
2023-05-22T06:54:55.351Z,4.75
2023-05-22T06:57:24.208Z,4.60
2023-05-22T06:59:52.618Z,4.43
2023-05-22T07:02:20.910Z,4.93
2023-05-22T07:04:49.183Z,4.38
2023-05-22T07:07:17.378Z,4.70
2023-05-22T07:09:45.798Z,4.15
2023-05-22T07:12:15.411Z,3.83
2023-05-22T07:14:43.772Z,4.25
2023-05-22T07:17:11.907Z,4.25
2023-05-22T07:19:40.057Z,3.92
2023-05-22T07:22:08.288Z,3.63
2023-05-22T07:24:36.542Z,4.28
2023-05-22T07:27:04.915Z,4.03
2023-05-22T07:29:34.443Z,4.30
2023-05-22T07:32:02.644Z,3.88
2023-05-22T07:34:33.390Z,3.85
2023-05-22T07:37:02.192Z,3.47
2023-05-22T07:39:30.367Z,3.63
2023-05-22T07:41:59.513Z,3.50
2023-05-22T07:44:29.178Z,4.20
2023-05-22T07:46:59.682Z,4.00
2023-05-22T07:49:28.028Z,4.00
2023-05-22T07:51:56.217Z,4.43
2023-05-22T07:54:24.690Z,3.95
2023-05-22T07:56:53.721Z,4.07
2023-05-22T07:59:22.162Z,4.05
2023-05-22T08:01:50.456Z,3.95
2023-05-22T08:04:20.360Z,3.97
2023-05-22T08:06:48.633Z,4.10
2023-05-22T08:09:16.991Z,3.90
2023-05-22T08:11:45.196Z,4.07
2023-05-22T08:14:13.436Z,4.47
2023-05-22T08:16:41.713Z,3.75
2023-05-22T08:19:10.155Z,3.95
2023-05-22T08:21:40.502Z,3.72
2023-05-22T08:24:09.356Z,4.15
2023-05-22T08:26:37.844Z,4.20
2023-05-22T08:29:05.976Z,3.78
2023-05-22T08:31:34.677Z,4.25
2023-05-22T08:34:04.879Z,4.32
2023-05-22T08:36:34.293Z,3.85
2023-05-22T08:39:04.174Z,4.30
2023-05-22T08:41:32.421Z,3.70
2023-05-22T08:44:00.707Z,3.55
2023-05-22T08:46:31.871Z,3.60
2023-05-22T08:49:00.233Z,3.60
2023-05-22T08:51:31.691Z,3.35
2023-05-22T08:54:02.094Z,4.00
2023-05-22T08:56:35.181Z,4.20
2023-05-22T08:59:07.056Z,4.25
2023-05-22T09:01:35.559Z,4.20
2023-05-22T09:04:05.051Z,3.95
2023-05-22T09:06:33.409Z,3.90
2023-05-22T09:11:32.422Z,3.70
2023-05-22T09:14:09.299Z,3.53
2023-05-22T09:16:46.700Z,3.75
2023-05-22T09:19:15.358Z,3.22
2023-05-22T09:21:44.587Z,3.83
2023-05-22T09:24:13.179Z,3.42
2023-05-22T09:26:42.882Z,3.80
2023-05-22T09:29:11.242Z,3.25
2023-05-22T09:31:43.959Z,3.00
2023-05-22T09:34:14.503Z,3.40
2023-05-22T09:36:43.135Z,3.20
2023-05-22T09:39:11.404Z,3.13
2023-05-22T09:41:41.369Z,2.60
2023-05-22T09:44:17.580Z,2.80
2023-05-22T09:46:47.360Z,2.90
2023-05-22T09:49:17.243Z,3.30
2023-05-22T09:51:49.024Z,3.65
2023-05-22T09:54:18.260Z,2.55
2023-05-22T09:56:50.348Z,2.58
2023-05-22T09:59:23.778Z,2.88
2023-05-22T10:01:52.328Z,2.35
2023-05-22T10:04:23.367Z,2.60
2023-05-22T10:06:54.177Z,2.10
2023-05-22T10:09:26.320Z,2.20
2023-05-22T10:11:59.232Z,2.47
2023-05-22T10:14:30.930Z,2.58
2023-05-22T10:17:02.351Z,2.15
2023-05-22T10:19:33.158Z,2.47
2023-05-22T10:22:02.192Z,2.70
2023-05-22T10:24:31.154Z,2.40
2023-05-22T10:26:59.447Z,2.58
2023-05-22T10:29:37.472Z,2.28
2023-05-22T10:32:10.787Z,2.25
2023-05-22T10:34:49.948Z,2.50
2023-05-22T10:37:31.737Z,2.38
2023-05-22T10:40:05.032Z,2.50
2023-05-22T10:42:33.418Z,2.42
2023-05-22T10:45:04.849Z,2.40
2023-05-22T10:47:34.787Z,2.38
2023-05-22T10:50:09.426Z,2.60
2023-05-22T10:52:37.828Z,2.83
2023-05-22T10:55:10.376Z,2.40
2023-05-22T10:57:39.912Z,2.65
2023-05-22T11:00:18.854Z,2.85
2023-05-22T11:02:47.386Z,2.83
2023-05-22T11:05:35.406Z,2.75
2023-05-22T11:08:35.403Z,2.63
2023-05-22T11:11:13.938Z,2.30
2023-05-22T11:13:43.760Z,2.33
2023-05-22T11:16:13.837Z,2.42
2023-05-22T11:18:42.089Z,3.00
2023-05-22T11:21:14.056Z,2.70
2023-05-22T11:23:42.945Z,2.25
2023-05-22T11:26:22.665Z,2.75
2023-05-22T11:28:53.480Z,2.40
2023-05-22T11:31:24.502Z,2.90
2023-05-22T11:33:52.716Z,2.67
2023-05-22T11:36:22.843Z,2.90
2023-05-22T11:38:51.057Z,2.53
2023-05-22T11:41:19.290Z,2.42
2023-05-22T11:43:47.573Z,2.90
2023-05-22T11:46:16.068Z,2.42
2023-05-22T11:48:45.962Z,2.55
2023-05-22T11:51:14.246Z,2.20
2023-05-22T11:53:42.941Z,2.17
2023-05-22T11:56:11.490Z,2.60
2023-05-22T11:58:39.698Z,2.53
2023-05-22T12:01:07.982Z,2.60
2023-05-22T12:03:36.311Z,2.40
2023-05-22T12:06:06.809Z,2.30
2023-05-22T12:08:35.702Z,3.25
2023-05-22T12:11:07.057Z,2.33
2023-05-22T12:13:35.256Z,2.90
2023-05-22T12:16:03.612Z,2.22
2023-05-22T12:18:37.735Z,2.67
2023-05-22T12:21:09.204Z,2.58
2023-05-22T12:23:37.371Z,2.25
2023-05-22T12:26:11.458Z,2.55
2023-05-22T12:28:40.455Z,2.03
2023-05-22T12:31:08.710Z,2.95
2023-05-22T12:33:36.969Z,2.00
2023-05-22T12:36:10.549Z,1.83
2023-05-22T12:38:40.355Z,2.53
2023-05-22T12:41:08.595Z,2.50
2023-05-22T12:43:36.866Z,2.50
2023-05-22T12:46:05.127Z,2.47
2023-05-22T12:48:33.375Z,1.80
2023-05-22T12:51:01.896Z,2.25
2023-05-22T12:53:31.671Z,2.45
2023-05-22T12:55:59.845Z,2.45
2023-05-22T12:58:28.145Z,2.38
2023-05-22T13:00:56.413Z,2.60
2023-05-22T13:03:24.666Z,2.80
2023-05-22T13:05:52.845Z,2.25
2023-05-22T13:08:21.064Z,2.42
2023-05-22T13:10:50.780Z,2.47
2023-05-22T13:13:19.011Z,2.17
2023-05-22T13:15:47.422Z,2.47
2023-05-22T13:18:16.601Z,2.75
2023-05-22T13:20:45.128Z,2.60
2023-05-22T13:23:13.357Z,2.22
2023-05-22T13:25:41.791Z,2.42
2023-05-22T13:28:11.501Z,2.55
2023-05-22T13:30:40.328Z,2.67
2023-05-22T13:33:08.836Z,2.70
2023-05-22T13:35:37.020Z,2.88
2023-05-22T13:38:05.370Z,2.80
2023-05-22T13:40:33.707Z,2.60
2023-05-22T13:43:02.032Z,2.85
2023-05-22T13:45:31.692Z,3.20
2023-05-22T13:47:59.912Z,2.75
2023-05-22T13:50:28.172Z,2.67
2023-05-22T13:52:56.688Z,2.92
2023-05-22T13:55:25.012Z,2.40
2023-05-22T13:57:53.130Z,2.17
2023-05-22T14:00:22.486Z,2.70
2023-05-22T14:02:52.450Z,2.60
2023-05-22T14:05:21.428Z,2.90
2023-05-22T14:07:50.547Z,3.13
2023-05-22T14:10:19.491Z,2.65
2023-05-22T14:12:47.714Z,2.53
2023-05-22T14:15:17.814Z,2.60
2023-05-22T14:17:46.974Z,2.05
2023-05-22T14:20:16.695Z,2.25
2023-05-22T14:22:56.613Z,2.75
2023-05-22T14:25:25.901Z,2.63
2023-05-22T14:27:54.358Z,2.47
2023-05-22T14:30:22.545Z,2.85
2023-05-22T14:32:51.032Z,2.20
2023-05-22T14:35:20.867Z,2.55
2023-05-22T14:37:49.198Z,2.67
2023-05-22T14:40:17.558Z,2.35
2023-05-22T14:42:45.917Z,2.78
2023-05-22T14:45:14.139Z,2.30
2023-05-22T14:47:43.314Z,2.00
2023-05-22T14:50:19.199Z,2.22
2023-05-22T14:52:50.310Z,2.50
2023-05-22T14:55:19.104Z,2.38
2023-05-22T14:57:47.295Z,2.33
2023-05-22T15:00:16.542Z,2.35
2023-05-22T15:02:44.918Z,2.28
2023-05-22T15:05:13.228Z,2.33
2023-05-22T15:07:44.452Z,2.38
2023-05-22T15:10:14.713Z,2.00
2023-05-22T15:12:42.909Z,2.22
2023-05-22T15:15:11.913Z,1.92
2023-05-22T15:17:42.582Z,2.33
2023-05-22T15:20:12.283Z,1.80
2023-05-22T15:22:40.734Z,1.92
2023-05-22T15:25:11.976Z,2.05
2023-05-22T15:27:42.337Z,1.90
2023-05-22T15:30:12.380Z,2.05
2023-05-22T15:32:40.799Z,2.30
2023-05-22T15:35:10.020Z,2.22
2023-05-22T15:37:38.296Z,2.00
2023-05-22T15:40:09.827Z,1.88
2023-05-22T15:42:38.336Z,1.85
2023-05-22T15:45:09.510Z,2.13
2023-05-22T15:47:37.706Z,2.03
2023-05-22T15:50:06.932Z,2.13
2023-05-22T15:52:35.065Z,2.13
2023-05-22T15:55:03.332Z,2.03
2023-05-22T15:57:31.513Z,2.22
2023-05-22T15:59:59.673Z,2.05
2023-05-22T16:02:29.317Z,1.90
2023-05-22T16:04:57.707Z,1.60
2023-05-22T16:07:25.894Z,2.25
2023-05-22T16:09:54.411Z,1.98
2023-05-22T16:12:22.757Z,2.10
2023-05-22T16:14:51.021Z,2.08
2023-05-22T16:17:19.247Z,2.50
2023-05-22T16:19:48.818Z,2.63
2023-05-22T16:22:17.113Z,2.38
2023-05-22T16:24:45.355Z,1.98
2023-05-22T16:27:13.581Z,2.17
2023-05-22T16:29:42.288Z,2.28
2023-05-22T16:32:10.514Z,1.92
2023-05-22T16:34:39.169Z,2.17
2023-05-22T16:37:08.997Z,2.13
2023-05-22T16:39:39.957Z,1.90
2023-05-22T16:42:08.309Z,2.00
2023-05-22T16:44:36.504Z,2.20
2023-05-22T16:47:05.000Z,2.17
2023-05-22T16:49:33.268Z,2.38
2023-05-22T16:52:01.460Z,2.08
2023-05-22T16:54:31.039Z,2.38
2023-05-22T16:56:59.246Z,1.98
2023-05-22T16:59:27.428Z,2.42
2023-05-22T17:01:55.870Z,2.42
2023-05-22T17:04:24.127Z,2.35
2023-05-22T17:06:53.778Z,2.20
2023-05-22T17:09:22.006Z,2.70
2023-05-22T17:11:51.606Z,2.40
2023-05-22T17:14:21.829Z,2.35
2023-05-22T17:16:50.244Z,1.98
2023-05-22T17:19:18.911Z,1.75
2023-05-22T17:21:47.244Z,2.00
2023-05-22T17:24:15.463Z,2.00
2023-05-22T17:26:44.126Z,2.30
2023-05-22T17:29:13.703Z,2.30
2023-05-22T17:31:42.044Z,2.40
2023-05-22T17:34:10.292Z,2.20
2023-05-22T17:36:38.597Z,2.10
2023-05-22T17:39:06.767Z,2.33
2023-05-22T17:41:35.169Z,2.47
2023-05-22T17:44:03.322Z,2.67
2023-05-22T17:46:33.308Z,2.60
2023-05-22T17:49:01.529Z,2.50
2023-05-22T17:51:29.756Z,2.03
2023-05-22T17:53:59.177Z,2.65
2023-05-22T17:56:27.925Z,2.42
2023-05-22T17:58:56.247Z,1.83
2023-05-22T18:01:24.686Z,2.42
2023-05-22T18:03:54.456Z,2.22
2023-05-22T18:06:24.349Z,2.50
2023-05-22T18:08:53.327Z,2.38
2023-05-22T18:11:21.523Z,2.95
2023-05-22T18:13:49.751Z,2.10
2023-05-22T18:16:18.975Z,2.22
2023-05-22T18:18:47.170Z,2.60
2023-05-22T18:21:16.964Z,2.20
2023-05-22T18:23:45.199Z,2.22
2023-05-22T18:26:13.453Z,2.22
2023-05-22T18:28:42.726Z,2.38
2023-05-22T18:31:11.124Z,2.47
2023-05-22T18:33:40.281Z,2.42
2023-05-22T18:36:08.550Z,2.90
2023-05-22T18:38:38.248Z,2.75
2023-05-22T18:41:07.143Z,2.00
2023-05-22T18:43:35.429Z,3.05
2023-05-22T18:46:03.659Z,2.80
2023-05-22T18:48:33.313Z,2.55
2023-05-22T18:51:01.726Z,2.42
2023-05-22T18:53:30.187Z,2.53
2023-05-22T18:55:59.842Z,2.25
2023-05-22T18:58:28.068Z,3.17
2023-05-22T19:00:56.836Z,2.50
2023-05-22T19:03:25.116Z,2.70
2023-05-22T19:05:53.877Z,2.50
2023-05-22T19:08:22.275Z,2.90
2023-05-22T19:10:50.460Z,2.25
2023-05-22T19:13:20.293Z,4.55
2023-05-22T19:15:48.606Z,2.20
2023-05-22T19:18:17.125Z,2.67
2023-05-22T19:20:45.409Z,2.92
2023-05-22T19:23:14.063Z,2.67
2023-05-22T19:25:42.366Z,3.00
2023-05-22T19:28:10.577Z,2.83
2023-05-22T19:30:41.345Z,2.40
2023-05-22T19:33:11.203Z,3.08
2023-05-22T19:35:39.743Z,2.85
2023-05-22T19:38:07.747Z,2.58
2023-05-22T19:40:36.261Z,2.30
2023-05-22T19:43:04.584Z,2.78
2023-05-22T19:45:32.712Z,2.42
2023-05-22T19:48:02.527Z,2.63
2023-05-22T19:50:30.839Z,2.97
2023-05-22T19:52:59.696Z,2.88
2023-05-22T19:55:27.937Z,2.33
2023-05-22T19:57:56.162Z,2.72
2023-05-22T20:00:28.532Z,2.88
2023-05-22T20:02:56.754Z,2.88
2023-05-22T20:05:26.455Z,2.50
2023-05-22T20:07:54.732Z,2.63
2023-05-22T20:10:24.015Z,2.65
2023-05-22T20:12:54.255Z,3.10
2023-05-22T20:15:23.078Z,2.67
2023-05-22T20:17:53.189Z,2.88
2023-05-22T20:20:21.668Z,3.55
2023-05-22T20:22:51.630Z,3.10
2023-05-22T20:25:21.398Z,2.50
2023-05-22T20:27:49.600Z,2.85
2023-05-22T20:30:17.942Z,2.65
2023-05-22T20:32:46.992Z,2.50
2023-05-22T20:35:18.997Z,3.03
2023-05-22T20:37:47.666Z,3.03
2023-05-22T20:40:17.776Z,3.75
2023-05-22T20:42:47.654Z,5.38
2023-05-22T20:45:16.601Z,5.05
2023-05-22T20:47:44.856Z,3.50
2023-05-22T20:50:13.360Z,3.00
2023-05-22T20:52:41.648Z,2.90
2023-05-22T20:55:10.892Z,2.67
2023-05-22T20:57:40.619Z,2.15
2023-05-22T21:00:14.051Z,2.58
2023-05-22T21:02:42.458Z,2.97
2023-05-22T21:05:11.383Z,2.70
2023-05-22T21:07:39.573Z,2.80
2023-05-22T21:10:09.146Z,2.70
2023-05-22T21:12:37.557Z,3.15
2023-05-22T21:15:08.811Z,2.67
2023-05-22T21:17:37.229Z,2.80
2023-05-22T21:20:05.856Z,3.05
2023-05-22T21:22:34.128Z,2.95
2023-05-22T21:25:02.270Z,2.55
2023-05-22T21:27:30.472Z,3.13
2023-05-22T21:29:58.769Z,2.63
2023-05-22T21:32:28.388Z,3.08
2023-05-22T21:34:56.668Z,2.65
2023-05-22T21:37:25.782Z,2.70
2023-05-22T21:39:53.901Z,2.78
2023-05-22T21:42:22.521Z,3.03
2023-05-22T21:44:50.670Z,2.80
2023-05-22T21:47:19.063Z,3.03
2023-05-22T21:49:48.667Z,2.65
2023-05-22T21:52:17.181Z,2.60
2023-05-22T21:54:45.373Z,2.78
2023-05-22T21:57:13.593Z,2.25
2023-05-22T21:59:41.776Z,2.50
2023-05-22T22:02:10.078Z,2.58
2023-05-22T22:04:38.235Z,3.33
2023-05-22T22:07:07.910Z,2.63
2023-05-22T22:09:36.080Z,2.75
2023-05-22T22:12:04.373Z,2.97
2023-05-22T22:14:32.596Z,2.75
2023-05-22T22:17:01.003Z,2.45
2023-05-22T22:19:29.382Z,2.80
2023-05-22T22:21:57.847Z,3.05
2023-05-22T22:24:27.492Z,2.80
2023-05-22T22:26:55.647Z,3.08
2023-05-22T22:29:23.801Z,2.47
2023-05-22T22:31:53.083Z,2.88
2023-05-22T22:34:21.480Z,2.30
2023-05-22T22:36:49.659Z,3.10
2023-05-22T22:39:17.944Z,3.10
2023-05-22T22:41:47.479Z,2.80
2023-05-22T22:44:15.705Z,3.13
2023-05-22T22:46:44.309Z,2.60
2023-05-22T22:49:12.868Z,2.97
2023-05-22T22:51:41.126Z,2.70
2023-05-22T22:54:09.269Z,2.63
2023-05-22T22:56:37.503Z,2.80
2023-05-22T22:59:07.117Z,2.58
2023-05-22T23:01:35.338Z,3.17
2023-05-22T23:04:03.694Z,2.60
2023-05-22T23:06:33.110Z,2.60
2023-05-22T23:09:02.855Z,2.67
2023-05-22T23:11:37.488Z,2.85
2023-05-22T23:14:08.578Z,2.72
2023-05-22T23:16:37.295Z,2.90
2023-05-22T23:19:05.940Z,2.85
2023-05-22T23:21:34.765Z,2.60
2023-05-22T23:24:05.412Z,2.88
2023-05-22T23:26:34.384Z,3.20
2023-05-22T23:29:03.006Z,2.95
2023-05-22T23:31:32.869Z,3.10
2023-05-22T23:34:01.169Z,2.90
2023-05-22T23:36:30.279Z,2.83
2023-05-22T23:38:58.394Z,2.67
2023-05-22T23:41:27.621Z,3.00
2023-05-22T23:43:55.898Z,2.53
2023-05-22T23:46:24.729Z,2.88
2023-05-22T23:48:54.374Z,2.50
2023-05-22T23:51:22.513Z,2.70
2023-05-22T23:53:50.744Z,2.88
2023-05-22T23:56:18.873Z,3.28
2023-05-22T23:58:47.036Z,2.88
